Hovedside
METAR-TAF:

METAR-TAF

Lufthavner :

Portland-Troutdale Airport

Troutdale, Oregon, USA

breddegrad: 45-33-04N, lengdegrad: 122-24-32W, høyde over havet: 11 m

Gjeldene værobservasjon

Denne rapporten ble laget for 57 minutter siden, klokken 21:53 UTC
Vind 3 kt fra skiftende retning
Temperatur 24°C
Luftfuktighet 38%
Trykk 1023 hPa
Sikt: 16.1 km
Skyfri himmel

METAR: KTTD 172153Z VRB03KT 10SM CLR 24/09 A3020 RMK AO2 SLP227 T02440089

Tid: 15:50 (22:50 UTC)

Varsel

Denne rapporten ble laget for 5 timer og 27 minutter siden, klokken 17:23 UTC
Varsel gyldig fra 17. klokken 18 UTC til 18. klokken 18 UTC
Vind 5 kt fra Vest
Sikt: 10 km
Skyfri himmel
Fra 18. klokken 1300 UTC
Vind 3 kt fra skiftende retning
Sikt: 10 km
Få skyer i en høyde av 800 ft
Spredte skyer i en høyde av 1200 ft
Fra 18. klokken 1700 UTC
Vind 4 kt fra Vest
Sikt: 10 km
Skyfri himmel

TAF: KTTD 171723Z 1718/1818 26005KT P6SM SKC FM181300 VRB03KT P6SM FEW008 SCT012 FM181700 26004KT P6SM SKC

Værobservasjoner og værvarsel for over 4000 flyplasser (METAR- og TAF-rapporter).

Tilgjengelige stasjoner er representert av de røde og gule prikkene på kartet.

Hold musepekeren over prikken for å se navnet på stasjonen.

Klikk så for å se værobservasjoner og -varsler.

For å forandre kartet kan du klikke på den grønne knappen med svart kryss for å zoome inn, på den grønne knappen med strek for å zoome ut, eller på de grønne pilene for å se tilstøtende kart.


METAR-TAF: